createdAt,value
2024-03-14T00:03:00.124Z,5.0
2024-03-14T00:08:06.299Z,6.0
2024-03-14T00:13:12.723Z,6.0
2024-03-14T00:18:18.832Z,6.0
2024-03-14T00:23:24.926Z,7.0
2024-03-14T00:28:31.136Z,7.0
2024-03-14T00:33:37.530Z,6.5
2024-03-14T00:38:43.568Z,7.0
2024-03-14T00:43:49.780Z,7.0
2024-03-14T00:48:55.084Z,7.0
2024-03-14T00:54:01.231Z,8.0
2024-03-14T00:59:07.428Z,8.0
2024-03-14T01:04:13.631Z,8.0
2024-03-14T01:09:19.869Z,8.0
2024-03-14T01:14:26.049Z,8.0
2024-03-14T01:19:32.253Z,8.0
2024-03-14T01:24:38.500Z,8.0
2024-03-14T01:29:44.690Z,9.0
2024-03-14T01:34:50.885Z,8.0
2024-03-14T01:39:57.102Z,9.0
2024-03-14T01:45:03.337Z,9.0
2024-03-14T01:50:09.658Z,9.0
2024-03-14T01:55:15.763Z,9.0
2024-03-14T02:00:21.975Z,9.0
2024-03-14T02:05:28.181Z,9.0
2024-03-14T02:10:34.342Z,9.0
2024-03-14T02:15:40.552Z,9.0
2024-03-14T02:20:46.776Z,9.0
2024-03-14T02:25:52.969Z,9.0
2024-03-14T02:30:59.171Z,9.0
2024-03-14T02:36:05.437Z,9.0
2024-03-14T02:41:11.607Z,9.0
2024-03-14T02:46:17.805Z,9.0
2024-03-14T02:51:24.051Z,9.0
2024-03-14T02:56:30.216Z,9.0
2024-03-14T03:01:36.431Z,9.0
2024-03-14T03:06:42.636Z,9.0
2024-03-14T03:11:49.162Z,9.0
2024-03-14T03:16:55.049Z,8.0
2024-03-14T03:22:01.260Z,9.0
2024-03-14T03:27:07.501Z,9.0
2024-03-14T03:32:13.708Z,9.0
2024-03-14T03:37:19.884Z,8.5
2024-03-14T03:42:26.159Z,8.0
2024-03-14T03:47:32.303Z,8.0
2024-03-14T03:52:38.517Z,8.0
2024-03-14T03:57:44.876Z,8.0
2024-03-14T04:02:50.929Z,8.0
2024-03-14T04:07:57.250Z,7.0
2024-03-14T04:13:03.377Z,8.0
2024-03-14T04:18:09.606Z,8.0
2024-03-14T04:23:15.897Z,7.0
2024-03-14T04:28:21.991Z,7.0
2024-03-14T04:33:28.251Z,7.0
2024-03-14T04:38:34.403Z,6.0
2024-03-14T04:43:40.594Z,6.0
2024-03-14T04:48:46.915Z,6.0
2024-03-14T04:53:53.041Z,6.0
2024-03-14T04:58:59.205Z,6.0
2024-03-14T05:04:07.556Z,6.0
2024-03-14T05:09:11.664Z,5.0
2024-03-14T05:14:17.835Z,5.0
2024-03-14T05:19:26.418Z,5.0
2024-03-14T05:24:30.367Z,6.0
2024-03-14T05:29:36.457Z,5.0
2024-03-14T05:34:42.669Z,5.0
2024-03-14T05:39:48.882Z,5.0
2024-03-14T05:44:55.120Z,5.0
2024-03-14T05:50:03.412Z,5.0
2024-03-14T05:55:07.547Z,5.0
2024-03-14T06:00:14.178Z,5.0
2024-03-14T06:05:19.915Z,5.0
2024-03-14T06:10:26.123Z,5.0
2024-03-14T06:15:32.378Z,5.0
2024-03-14T06:20:37.554Z,5.0
2024-03-14T06:25:43.832Z,5.0
2024-03-14T06:30:50.080Z,5.0
2024-03-14T06:35:56.201Z,5.0
2024-03-14T06:41:02.380Z,5.0
2024-03-14T06:46:08.595Z,5.0
2024-03-14T06:51:13.883Z,5.0
2024-03-14T06:56:20.060Z,5.0
2024-03-14T07:01:26.271Z,5.0
2024-03-14T07:06:32.523Z,5.0
2024-03-14T07:11:38.931Z,5.0
2024-03-14T07:16:44.859Z,5.0
2024-03-14T07:21:51.084Z,5.0
2024-03-14T07:26:57.287Z,5.0
2024-03-14T07:32:03.480Z,5.0
2024-03-14T07:37:09.695Z,5.0
2024-03-14T07:42:15.993Z,5.0
2024-03-14T07:47:22.121Z,5.0
2024-03-14T07:52:28.323Z,5.0
2024-03-14T07:57:34.610Z,5.0
2024-03-14T08:02:40.800Z,5.0
2024-03-14T08:07:47.863Z,5.0
2024-03-14T08:12:53.168Z,5.0
2024-03-14T08:17:59.457Z,5.0
2024-03-14T08:23:05.581Z,4.0
2024-03-14T08:28:11.792Z,4.0
2024-03-14T08:33:18.154Z,4.0
2024-03-14T08:38:24.285Z,4.0
2024-03-14T08:43:30.428Z,5.0
2024-03-14T08:48:36.781Z,4.0
2024-03-14T08:53:42.864Z,4.0
2024-03-14T08:58:49.071Z,4.0
2024-03-14T09:03:55.297Z,4.0
2024-03-14T09:09:01.762Z,4.0
2024-03-14T09:14:07.709Z,4.0
2024-03-14T09:19:13.952Z,4.0
2024-03-14T09:24:20.218Z,4.0
2024-03-14T09:29:26.336Z,3.0
2024-03-14T09:34:32.543Z,3.0
2024-03-14T09:39:38.867Z,3.0
2024-03-14T09:44:44.965Z,3.0
2024-03-14T09:49:51.164Z,3.0
2024-03-14T09:54:57.434Z,3.0
2024-03-14T10:00:03.583Z,3.0
2024-03-14T10:05:09.785Z,3.0
2024-03-14T10:10:16.257Z,3.0
2024-03-14T10:15:22.289Z,3.0
2024-03-14T10:20:28.410Z,3.0
2024-03-14T10:25:34.630Z,3.0
2024-03-14T10:30:40.905Z,2.0
2024-03-14T10:35:47.041Z,2.0
2024-03-14T10:40:53.273Z,2.0
2024-03-14T10:45:59.511Z,3.0
2024-03-14T10:51:05.688Z,2.0
2024-03-14T10:56:11.868Z,2.0
2024-03-14T11:01:18.113Z,2.0
2024-03-14T11:06:24.310Z,2.0
2024-03-14T11:11:30.553Z,2.0
2024-03-14T11:16:36.705Z,2.0
2024-03-14T11:21:42.928Z,2.0
2024-03-14T11:26:49.165Z,2.0
2024-03-14T11:31:55.325Z,2.0
2024-03-14T11:37:01.569Z,1.0
2024-03-14T11:42:08.015Z,2.0
2024-03-14T11:47:13.949Z,1.0
2024-03-14T11:52:20.446Z,1.0
2024-03-14T11:57:26.437Z,2.0
2024-03-14T12:02:32.644Z,2.0
2024-03-14T12:07:38.797Z,2.0
2024-03-14T12:12:45.009Z,2.0
2024-03-14T12:17:51.221Z,3.0
2024-03-14T12:22:56.424Z,3.0
2024-03-14T12:28:02.634Z,4.0
2024-03-14T12:33:09.117Z,4.0
2024-03-14T12:38:15.068Z,2.0
2024-03-14T12:43:21.272Z,4.0
2024-03-14T12:48:27.602Z,4.0
2024-03-14T12:53:33.682Z,4.0
2024-03-14T12:58:39.886Z,5.0
2024-03-14T13:03:46.131Z,4.0
2024-03-14T13:08:52.327Z,4.0
2024-03-14T13:13:58.514Z,4.0
2024-03-14T13:19:04.823Z,4.0
2024-03-14T13:24:10.963Z,4.0
2024-03-14T13:29:17.138Z,4.0
2024-03-14T13:34:23.350Z,4.0
2024-03-14T13:39:29.601Z,4.0
2024-03-14T13:44:35.768Z,3.0
2024-03-14T13:49:41.975Z,3.0
2024-03-14T13:54:48.199Z,3.0
2024-03-14T13:59:54.527Z,2.0
2024-03-14T14:05:00.601Z,2.0
2024-03-14T14:10:06.817Z,2.0
2024-03-14T14:15:13.139Z,3.0
2024-03-14T14:20:19.225Z,2.0
2024-03-14T14:25:25.440Z,2.0
2024-03-14T14:30:31.652Z,2.0
2024-03-14T14:35:37.949Z,2.0
2024-03-14T14:40:44.057Z,3.0
2024-03-14T14:45:50.356Z,2.0
2024-03-14T14:50:56.537Z,2.0
2024-03-14T14:56:02.700Z,2.0
2024-03-14T15:01:10.314Z,2.0
2024-03-14T15:06:15.194Z,2.0
2024-03-14T15:11:21.350Z,2.0
2024-03-14T15:16:27.592Z,2.0
2024-03-14T15:21:33.761Z,2.0
2024-03-14T15:26:39.937Z,2.0
2024-03-14T15:31:46.160Z,2.0
2024-03-14T15:36:52.367Z,2.0
2024-03-14T15:41:58.579Z,2.0
2024-03-14T15:47:04.776Z,2.0
2024-03-14T15:52:11.006Z,2.0
2024-03-14T15:57:17.877Z,3.0
2024-03-14T16:02:23.399Z,3.0
2024-03-14T16:07:29.634Z,2.0
2024-03-14T16:12:35.859Z,2.0
2024-03-14T16:17:42.409Z,2.0
2024-03-14T16:22:48.259Z,1.0
2024-03-14T16:27:54.444Z,2.0
2024-03-14T16:33:01.159Z,2.0
2024-03-14T16:38:07.039Z,2.0
2024-03-14T16:43:13.068Z,2.0
2024-03-14T16:48:19.394Z,3.0
2024-03-14T16:53:25.487Z,2.0
2024-03-14T16:58:31.832Z,2.0
2024-03-14T17:03:38.008Z,2.0
2024-03-14T17:08:44.109Z,3.0
2024-03-14T17:13:50.317Z,3.0
2024-03-14T17:18:56.623Z,3.0
2024-03-14T17:24:02.797Z,2.0
2024-03-14T17:29:08.941Z,3.0
2024-03-14T17:34:15.290Z,3.0
2024-03-14T17:39:21.419Z,3.0
2024-03-14T17:44:27.565Z,3.0
2024-03-14T17:49:33.775Z,3.0
2024-03-14T17:54:39.049Z,3.0
2024-03-14T17:59:45.284Z,3.0
2024-03-14T18:04:51.430Z,3.0
2024-03-14T18:09:57.633Z,3.0
2024-03-14T18:15:03.943Z,3.0
2024-03-14T18:20:10.508Z,3.0
2024-03-14T18:25:16.253Z,4.0
2024-03-14T18:30:23.371Z,4.0
2024-03-14T18:35:28.688Z,4.0
2024-03-14T18:40:34.885Z,3.0
2024-03-14T18:45:41.189Z,4.0
2024-03-14T18:50:47.334Z,4.0
2024-03-14T18:55:53.516Z,4.0
2024-03-14T19:00:59.795Z,4.0
2024-03-14T19:06:05.938Z,4.0
2024-03-14T19:11:12.297Z,4.0
2024-03-14T19:16:18.338Z,4.0
2024-03-14T19:21:24.559Z,4.0
2024-03-14T19:26:30.757Z,4.0
2024-03-14T19:31:36.959Z,4.5
2024-03-14T19:36:43.342Z,4.0
2024-03-14T19:41:49.373Z,5.0
2024-03-14T19:46:55.580Z,4.0
2024-03-14T19:52:01.858Z,4.0
2024-03-14T19:57:08.036Z,4.0
2024-03-14T20:02:14.210Z,4.0
2024-03-14T20:07:20.435Z,4.0
2024-03-14T20:12:26.672Z,4.0
2024-03-14T20:17:32.874Z,4.0
2024-03-14T20:22:39.091Z,4.0
2024-03-14T20:27:45.277Z,3.0
2024-03-14T20:32:51.579Z,3.0
2024-03-14T20:37:57.662Z,3.0
2024-03-14T20:43:03.871Z,3.0
2024-03-14T20:48:10.227Z,2.0
2024-03-14T20:53:16.289Z,2.0
2024-03-14T20:58:22.495Z,2.0
2024-03-14T21:03:28.914Z,2.0
2024-03-14T21:08:34.955Z,2.0
2024-03-14T21:13:41.163Z,2.0
2024-03-14T21:18:47.426Z,2.0
2024-03-14T21:23:53.550Z,2.0
2024-03-14T21:28:59.741Z,2.0
2024-03-14T21:34:05.958Z,2.0
2024-03-14T21:39:12.257Z,2.0
2024-03-14T21:44:18.365Z,2.0
2024-03-14T21:49:24.572Z,2.0
2024-03-14T21:54:30.791Z,2.0
2024-03-14T21:59:36.994Z,2.0
2024-03-14T22:04:43.213Z,2.0
2024-03-14T22:09:49.458Z,2.0
2024-03-14T22:14:57.869Z,2.0
2024-03-14T22:20:01.827Z,2.0
2024-03-14T22:25:08.040Z,2.0
2024-03-14T22:30:14.400Z,2.0
2024-03-14T22:35:20.456Z,3.0
2024-03-14T22:40:26.656Z,3.0
2024-03-14T22:45:32.906Z,3.0
2024-03-14T22:50:39.075Z,3.0
2024-03-14T22:55:45.277Z,3.0
2024-03-14T23:00:51.639Z,3.0
2024-03-14T23:05:57.726Z,3.0
2024-03-14T23:11:03.906Z,3.0
2024-03-14T23:16:10.126Z,3.0
2024-03-14T23:21:16.439Z,4.0
2024-03-14T23:26:25.292Z,3.0
2024-03-14T23:31:27.758Z,4.0
2024-03-14T23:36:34.010Z,4.0
2024-03-14T23:41:40.172Z,4.0
2024-03-14T23:46:46.379Z,4.0
2024-03-14T23:51:52.633Z,4.0
2024-03-14T23:56:57.809Z,4.0
